sensor_id;sensor_type;location;lat;lon;timestamp;temperature;humidity
4356;DHT22;64374;51.482;7.408;2023-06-14T00:00:19;24.10;74.80
4356;DHT22;64374;51.482;7.408;2023-06-14T00:02:47;24.00;75.00
4356;DHT22;64374;51.482;7.408;2023-06-14T00:05:18;24.00;75.20
4356;DHT22;64374;51.482;7.408;2023-06-14T00:07:47;24.10;74.90
4356;DHT22;64374;51.482;7.408;2023-06-14T00:10:17;24.20;74.80
4356;DHT22;64374;51.482;7.408;2023-06-14T00:12:46;24.10;74.60
4356;DHT22;64374;51.482;7.408;2023-06-14T00:15:15;24.10;74.90
4356;DHT22;64374;51.482;7.408;2023-06-14T00:17:44;24.10;75.10
4356;DHT22;64374;51.482;7.408;2023-06-14T00:20:14;24.00;75.00
4356;DHT22;64374;51.482;7.408;2023-06-14T00:22:44;23.90;75.10
4356;DHT22;64374;51.482;7.408;2023-06-14T00:25:13;23.80;75.50
4356;DHT22;64374;51.482;7.408;2023-06-14T00:27:56;23.80;75.60
4356;DHT22;64374;51.482;7.408;2023-06-14T00:30:50;23.90;75.90
4356;DHT22;64374;51.482;7.408;2023-06-14T00:33:19;23.70;75.90
4356;DHT22;64374;51.482;7.408;2023-06-14T00:35:47;23.80;76.50
4356;DHT22;64374;51.482;7.408;2023-06-14T00:38:17;23.80;76.40
4356;DHT22;64374;51.482;7.408;2023-06-14T00:40:45;23.90;76.00
4356;DHT22;64374;51.482;7.408;2023-06-14T00:43:14;23.80;76.20
4356;DHT22;64374;51.482;7.408;2023-06-14T00:45:43;23.80;76.40
4356;DHT22;64374;51.482;7.408;2023-06-14T00:48:14;23.60;76.30
4356;DHT22;64374;51.482;7.408;2023-06-14T00:50:43;23.60;76.50
4356;DHT22;64374;51.482;7.408;2023-06-14T00:53:16;23.60;77.50
4356;DHT22;64374;51.482;7.408;2023-06-14T00:55:46;23.60;76.50
4356;DHT22;64374;51.482;7.408;2023-06-14T00:58:16;23.50;76.90
4356;DHT22;64374;51.482;7.408;2023-06-14T01:00:46;23.40;77.40
4356;DHT22;64374;51.482;7.408;2023-06-14T01:03:15;23.40;77.60
4356;DHT22;64374;51.482;7.408;2023-06-14T01:05:47;23.40;77.70
4356;DHT22;64374;51.482;7.408;2023-06-14T01:08:28;23.30;77.80
4356;DHT22;64374;51.482;7.408;2023-06-14T01:11:04;23.40;78.20
4356;DHT22;64374;51.482;7.408;2023-06-14T01:13:42;23.40;77.90
4356;DHT22;64374;51.482;7.408;2023-06-14T01:16:15;23.40;78.10
4356;DHT22;64374;51.482;7.408;2023-06-14T01:18:44;23.50;78.30
4356;DHT22;64374;51.482;7.408;2023-06-14T01:21:22;23.50;78.40
4356;DHT22;64374;51.482;7.408;2023-06-14T01:23:53;23.50;78.30
4356;DHT22;64374;51.482;7.408;2023-06-14T01:26:26;23.40;78.50
4356;DHT22;64374;51.482;7.408;2023-06-14T01:28:59;23.50;78.50
4356;DHT22;64374;51.482;7.408;2023-06-14T01:31:27;23.30;78.40
4356;DHT22;64374;51.482;7.408;2023-06-14T01:33:57;23.30;78.60
4356;DHT22;64374;51.482;7.408;2023-06-14T01:36:28;23.30;78.40
4356;DHT22;64374;51.482;7.408;2023-06-14T01:38:59;23.10;78.70
4356;DHT22;64374;51.482;7.408;2023-06-14T01:41:29;23.10;78.70
4356;DHT22;64374;51.482;7.408;2023-06-14T01:43:58;23.10;78.80
4356;DHT22;64374;51.482;7.408;2023-06-14T01:46:26;23.10;78.80
4356;DHT22;64374;51.482;7.408;2023-06-14T01:48:55;22.90;78.80
4356;DHT22;64374;51.482;7.408;2023-06-14T01:51:24;23.00;79.30
4356;DHT22;64374;51.482;7.408;2023-06-14T01:53:54;23.00;79.40
4356;DHT22;64374;51.482;7.408;2023-06-14T01:56:27;23.10;79.50
4356;DHT22;64374;51.482;7.408;2023-06-14T01:58:56;23.20;78.80
4356;DHT22;64374;51.482;7.408;2023-06-14T02:01:24;23.20;78.90
4356;DHT22;64374;51.482;7.408;2023-06-14T02:03:54;23.20;78.90
4356;DHT22;64374;51.482;7.408;2023-06-14T02:06:26;23.00;79.10
4356;DHT22;64374;51.482;7.408;2023-06-14T02:08:56;23.10;78.80
4356;DHT22;64374;51.482;7.408;2023-06-14T02:11:29;23.20;78.50
4356;DHT22;64374;51.482;7.408;2023-06-14T02:13:57;23.10;78.60
4356;DHT22;64374;51.482;7.408;2023-06-14T02:16:27;23.20;78.40
4356;DHT22;64374;51.482;7.408;2023-06-14T02:18:57;23.20;78.50
4356;DHT22;64374;51.482;7.408;2023-06-14T02:21:25;23.00;78.50
4356;DHT22;64374;51.482;7.408;2023-06-14T02:23:54;22.80;78.60
4356;DHT22;64374;51.482;7.408;2023-06-14T02:26:22;22.50;78.70
4356;DHT22;64374;51.482;7.408;2023-06-14T02:28:52;22.50;79.00
4356;DHT22;64374;51.482;7.408;2023-06-14T02:31:21;22.60;79.00
4356;DHT22;64374;51.482;7.408;2023-06-14T02:33:49;22.60;79.20
4356;DHT22;64374;51.482;7.408;2023-06-14T02:36:19;22.70;78.80
4356;DHT22;64374;51.482;7.408;2023-06-14T02:38:48;22.90;78.70
4356;DHT22;64374;51.482;7.408;2023-06-14T02:41:16;22.90;78.70
4356;DHT22;64374;51.482;7.408;2023-06-14T02:43:46;23.00;78.70
4356;DHT22;64374;51.482;7.408;2023-06-14T02:46:16;23.00;78.30
4356;DHT22;64374;51.482;7.408;2023-06-14T02:48:45;23.10;78.30
4356;DHT22;64374;51.482;7.408;2023-06-14T02:51:15;23.10;78.20
4356;DHT22;64374;51.482;7.408;2023-06-14T02:53:45;23.10;78.10
4356;DHT22;64374;51.482;7.408;2023-06-14T02:56:14;23.10;77.90
4356;DHT22;64374;51.482;7.408;2023-06-14T02:58:45;23.00;77.80
4356;DHT22;64374;51.482;7.408;2023-06-14T03:01:21;23.00;77.70
4356;DHT22;64374;51.482;7.408;2023-06-14T03:03:50;23.10;77.50
4356;DHT22;64374;51.482;7.408;2023-06-14T03:06:20;23.00;77.40
4356;DHT22;64374;51.482;7.408;2023-06-14T03:08:53;23.00;77.60
4356;DHT22;64374;51.482;7.408;2023-06-14T03:11:23;23.00;77.50
4356;DHT22;64374;51.482;7.408;2023-06-14T03:13:52;22.90;77.40
4356;DHT22;64374;51.482;7.408;2023-06-14T03:16:26;22.90;77.70
4356;DHT22;64374;51.482;7.408;2023-06-14T03:18:57;22.60;77.70
4356;DHT22;64374;51.482;7.408;2023-06-14T03:21:29;22.60;77.90
4356;DHT22;64374;51.482;7.408;2023-06-14T03:24:02;22.60;78.30
4356;DHT22;64374;51.482;7.408;2023-06-14T03:26:32;22.50;78.30
4356;DHT22;64374;51.482;7.408;2023-06-14T03:29:03;22.50;78.60
4356;DHT22;64374;51.482;7.408;2023-06-14T03:31:56;22.50;78.70
4356;DHT22;64374;51.482;7.408;2023-06-14T03:34:26;22.50;78.90
4356;DHT22;64374;51.482;7.408;2023-06-14T03:36:57;22.40;78.40
4356;DHT22;64374;51.482;7.408;2023-06-14T03:39:25;22.40;78.50
4356;DHT22;64374;51.482;7.408;2023-06-14T03:41:55;22.50;78.20
4356;DHT22;64374;51.482;7.408;2023-06-14T03:44:26;22.30;78.60
4356;DHT22;64374;51.482;7.408;2023-06-14T03:47:04;22.50;78.20
4356;DHT22;64374;51.482;7.408;2023-06-14T03:49:33;22.50;78.00
4356;DHT22;64374;51.482;7.408;2023-06-14T03:52:02;22.50;77.90
4356;DHT22;64374;51.482;7.408;2023-06-14T03:54:32;22.50;77.90
4356;DHT22;64374;51.482;7.408;2023-06-14T03:57:06;22.40;78.40
4356;DHT22;64374;51.482;7.408;2023-06-14T03:59:34;22.50;78.50
4356;DHT22;64374;51.482;7.408;2023-06-14T04:02:05;22.40;78.60
4356;DHT22;64374;51.482;7.408;2023-06-14T04:04:34;22.50;78.40
4356;DHT22;64374;51.482;7.408;2023-06-14T04:07:04;22.50;78.80
4356;DHT22;64374;51.482;7.408;2023-06-14T04:09:36;22.40;79.10
4356;DHT22;64374;51.482;7.408;2023-06-14T04:12:05;22.20;79.00
4356;DHT22;64374;51.482;7.408;2023-06-14T04:14:36;22.20;79.40
4356;DHT22;64374;51.482;7.408;2023-06-14T04:17:08;22.50;79.80
4356;DHT22;64374;51.482;7.408;2023-06-14T04:19:37;22.30;79.90
4356;DHT22;64374;51.482;7.408;2023-06-14T04:22:06;22.00;79.70
4356;DHT22;64374;51.482;7.408;2023-06-14T04:24:36;22.10;79.80
4356;DHT22;64374;51.482;7.408;2023-06-14T04:27:04;22.10;80.20
4356;DHT22;64374;51.482;7.408;2023-06-14T04:29:36;22.20;80.20
4356;DHT22;64374;51.482;7.408;2023-06-14T04:32:17;22.20;80.50
4356;DHT22;64374;51.482;7.408;2023-06-14T04:34:46;22.10;81.40
4356;DHT22;64374;51.482;7.408;2023-06-14T04:37:14;22.10;81.80
4356;DHT22;64374;51.482;7.408;2023-06-14T04:39:45;22.10;82.00
4356;DHT22;64374;51.482;7.408;2023-06-14T04:42:14;22.20;82.00
4356;DHT22;64374;51.482;7.408;2023-06-14T04:44:44;21.80;82.10
4356;DHT22;64374;51.482;7.408;2023-06-14T04:47:14;21.90;82.10
4356;DHT22;64374;51.482;7.408;2023-06-14T04:49:45;22.10;81.80
4356;DHT22;64374;51.482;7.408;2023-06-14T04:52:14;22.00;81.30
4356;DHT22;64374;51.482;7.408;2023-06-14T04:54:44;22.10;81.30
4356;DHT22;64374;51.482;7.408;2023-06-14T04:57:17;22.00;81.40
4356;DHT22;64374;51.482;7.408;2023-06-14T04:59:50;22.10;82.00
4356;DHT22;64374;51.482;7.408;2023-06-14T05:02:24;22.20;81.40
4356;DHT22;64374;51.482;7.408;2023-06-14T05:04:55;22.30;82.00
4356;DHT22;64374;51.482;7.408;2023-06-14T05:07:24;22.20;82.00
4356;DHT22;64374;51.482;7.408;2023-06-14T05:09:54;22.20;82.60
4356;DHT22;64374;51.482;7.408;2023-06-14T05:12:23;22.20;81.70
4356;DHT22;64374;51.482;7.408;2023-06-14T05:14:51;22.20;82.60
4356;DHT22;64374;51.482;7.408;2023-06-14T05:17:21;22.10;81.50
4356;DHT22;64374;51.482;7.408;2023-06-14T05:19:49;22.20;81.60
4356;DHT22;64374;51.482;7.408;2023-06-14T05:22:19;22.40;81.80
4356;DHT22;64374;51.482;7.408;2023-06-14T05:24:48;22.10;81.40
4356;DHT22;64374;51.482;7.408;2023-06-14T05:27:17;22.10;81.90
4356;DHT22;64374;51.482;7.408;2023-06-14T05:29:50;22.00;81.70
4356;DHT22;64374;51.482;7.408;2023-06-14T05:32:22;22.10;81.90
4356;DHT22;64374;51.482;7.408;2023-06-14T05:34:51;22.30;82.10
4356;DHT22;64374;51.482;7.408;2023-06-14T05:37:21;22.30;82.60
4356;DHT22;64374;51.482;7.408;2023-06-14T05:39:59;22.30;81.90
4356;DHT22;64374;51.482;7.408;2023-06-14T05:42:30;22.50;82.40
4356;DHT22;64374;51.482;7.408;2023-06-14T05:44:59;22.40;82.10
4356;DHT22;64374;51.482;7.408;2023-06-14T05:47:27;22.60;82.20
4356;DHT22;64374;51.482;7.408;2023-06-14T05:49:56;22.30;82.70
4356;DHT22;64374;51.482;7.408;2023-06-14T05:52:26;22.50;84.60
4356;DHT22;64374;51.482;7.408;2023-06-14T05:54:55;22.60;83.10
4356;DHT22;64374;51.482;7.408;2023-06-14T05:57:23;22.60;81.80
4356;DHT22;64374;51.482;7.408;2023-06-14T05:59:52;22.70;81.80
4356;DHT22;64374;51.482;7.408;2023-06-14T06:02:20;22.80;81.60
4356;DHT22;64374;51.482;7.408;2023-06-14T06:04:53;22.90;81.30
4356;DHT22;64374;51.482;7.408;2023-06-14T06:07:21;23.10;81.50
4356;DHT22;64374;51.482;7.408;2023-06-14T06:09:51;23.00;81.60
4356;DHT22;64374;51.482;7.408;2023-06-14T06:12:19;23.10;80.90
4356;DHT22;64374;51.482;7.408;2023-06-14T06:14:50;23.00;80.60
4356;DHT22;64374;51.482;7.408;2023-06-14T06:17:18;23.00;80.60
4356;DHT22;64374;51.482;7.408;2023-06-14T06:19:46;22.80;81.50
4356;DHT22;64374;51.482;7.408;2023-06-14T06:22:15;22.90;82.10
4356;DHT22;64374;51.482;7.408;2023-06-14T06:24:45;22.70;81.90
4356;DHT22;64374;51.482;7.408;2023-06-14T06:27:16;22.80;81.70
4356;DHT22;64374;51.482;7.408;2023-06-14T06:29:46;22.80;81.40
4356;DHT22;64374;51.482;7.408;2023-06-14T06:32:16;22.90;81.00
4356;DHT22;64374;51.482;7.408;2023-06-14T06:34:44;23.00;81.30
4356;DHT22;64374;51.482;7.408;2023-06-14T06:37:13;23.00;81.50
4356;DHT22;64374;51.482;7.408;2023-06-14T06:39:41;23.10;81.50
4356;DHT22;64374;51.482;7.408;2023-06-14T06:42:12;23.20;81.80
4356;DHT22;64374;51.482;7.408;2023-06-14T06:44:44;23.20;81.80
4356;DHT22;64374;51.482;7.408;2023-06-14T06:47:12;23.20;81.50
4356;DHT22;64374;51.482;7.408;2023-06-14T06:49:40;23.10;82.10
4356;DHT22;64374;51.482;7.408;2023-06-14T06:52:10;23.10;82.40
4356;DHT22;64374;51.482;7.408;2023-06-14T06:54:40;23.20;82.40
4356;DHT22;64374;51.482;7.408;2023-06-14T06:57:08;23.20;82.70
4356;DHT22;64374;51.482;7.408;2023-06-14T06:59:38;23.30;82.40
4356;DHT22;64374;51.482;7.408;2023-06-14T07:02:08;23.50;82.20
4356;DHT22;64374;51.482;7.408;2023-06-14T07:04:37;23.30;82.20
4356;DHT22;64374;51.482;7.408;2023-06-14T07:07:05;23.40;82.80
4356;DHT22;64374;51.482;7.408;2023-06-14T07:09:35;23.40;81.80
4356;DHT22;64374;51.482;7.408;2023-06-14T07:12:04;23.40;80.50
4356;DHT22;64374;51.482;7.408;2023-06-14T07:14:33;23.30;80.30
4356;DHT22;64374;51.482;7.408;2023-06-14T07:17:01;23.40;81.20
4356;DHT22;64374;51.482;7.408;2023-06-14T07:19:33;23.40;81.00
4356;DHT22;64374;51.482;7.408;2023-06-14T07:22:04;23.40;81.60
4356;DHT22;64374;51.482;7.408;2023-06-14T07:24:33;23.40;81.30
4356;DHT22;64374;51.482;7.408;2023-06-14T07:27:05;23.30;81.40
4356;DHT22;64374;51.482;7.408;2023-06-14T07:29:43;23.20;81.00
4356;DHT22;64374;51.482;7.408;2023-06-14T07:32:11;23.20;81.60
4356;DHT22;64374;51.482;7.408;2023-06-14T07:34:41;23.00;81.90
4356;DHT22;64374;51.482;7.408;2023-06-14T07:37:11;23.40;82.80
4356;DHT22;64374;51.482;7.408;2023-06-14T07:39:39;23.00;81.30
4356;DHT22;64374;51.482;7.408;2023-06-14T07:42:08;23.10;81.60
4356;DHT22;64374;51.482;7.408;2023-06-14T07:44:42;23.20;82.50
4356;DHT22;64374;51.482;7.408;2023-06-14T07:47:11;23.20;82.30
4356;DHT22;64374;51.482;7.408;2023-06-14T07:49:41;23.10;81.80
4356;DHT22;64374;51.482;7.408;2023-06-14T07:52:12;23.10;82.50
4356;DHT22;64374;51.482;7.408;2023-06-14T07:54:40;23.20;82.80
4356;DHT22;64374;51.482;7.408;2023-06-14T07:57:09;23.10;82.40
4356;DHT22;64374;51.482;7.408;2023-06-14T07:59:38;23.10;81.90
4356;DHT22;64374;51.482;7.408;2023-06-14T08:02:07;23.00;80.80
4356;DHT22;64374;51.482;7.408;2023-06-14T08:04:35;23.10;81.10
4356;DHT22;64374;51.482;7.408;2023-06-14T08:07:05;23.20;80.40
4356;DHT22;64374;51.482;7.408;2023-06-14T08:09:35;23.20;79.80
4356;DHT22;64374;51.482;7.408;2023-06-14T08:12:06;23.20;79.20
4356;DHT22;64374;51.482;7.408;2023-06-14T08:14:38;23.20;78.10
4356;DHT22;64374;51.482;7.408;2023-06-14T08:17:07;23.00;77.40
4356;DHT22;64374;51.482;7.408;2023-06-14T08:19:36;23.10;79.40
4356;DHT22;64374;51.482;7.408;2023-06-14T08:22:06;23.00;79.40
4356;DHT22;64374;51.482;7.408;2023-06-14T08:24:41;23.20;78.70
4356;DHT22;64374;51.482;7.408;2023-06-14T08:27:10;23.40;79.30
4356;DHT22;64374;51.482;7.408;2023-06-14T08:29:38;23.30;78.90
4356;DHT22;64374;51.482;7.408;2023-06-14T08:32:08;23.40;80.00
4356;DHT22;64374;51.482;7.408;2023-06-14T08:34:38;23.50;79.10
4356;DHT22;64374;51.482;7.408;2023-06-14T08:37:11;23.40;77.50
4356;DHT22;64374;51.482;7.408;2023-06-14T08:39:39;23.40;77.90
4356;DHT22;64374;51.482;7.408;2023-06-14T08:42:09;23.40;77.10
4356;DHT22;64374;51.482;7.408;2023-06-14T08:44:46;23.40;78.40
4356;DHT22;64374;51.482;7.408;2023-06-14T08:47:15;23.50;78.10
4356;DHT22;64374;51.482;7.408;2023-06-14T08:49:48;23.40;77.90
4356;DHT22;64374;51.482;7.408;2023-06-14T08:52:20;23.40;76.60
4356;DHT22;64374;51.482;7.408;2023-06-14T08:54:53;23.30;75.50
4356;DHT22;64374;51.482;7.408;2023-06-14T08:57:23;23.00;74.40
4356;DHT22;64374;51.482;7.408;2023-06-14T08:59:52;22.90;74.70
4356;DHT22;64374;51.482;7.408;2023-06-14T09:02:22;23.00;75.30
4356;DHT22;64374;51.482;7.408;2023-06-14T09:04:54;23.00;75.00
4356;DHT22;64374;51.482;7.408;2023-06-14T09:07:28;23.10;74.90
4356;DHT22;64374;51.482;7.408;2023-06-14T09:10:10;23.00;74.80
4356;DHT22;64374;51.482;7.408;2023-06-14T09:13:02;23.00;75.30
4356;DHT22;64374;51.482;7.408;2023-06-14T09:15:30;22.90;75.00
4356;DHT22;64374;51.482;7.408;2023-06-14T09:18:01;23.00;74.60
4356;DHT22;64374;51.482;7.408;2023-06-14T09:20:30;23.00;74.20
4356;DHT22;64374;51.482;7.408;2023-06-14T09:23:00;23.00;74.00
4356;DHT22;64374;51.482;7.408;2023-06-14T09:25:30;23.10;75.00
4356;DHT22;64374;51.482;7.408;2023-06-14T09:28:06;23.20;75.20
4356;DHT22;64374;51.482;7.408;2023-06-14T09:30:36;23.30;75.50
4356;DHT22;64374;51.482;7.408;2023-06-14T09:33:04;23.20;75.20
4356;DHT22;64374;51.482;7.408;2023-06-14T09:35:32;23.20;75.60
4356;DHT22;64374;51.482;7.408;2023-06-14T09:38:09;23.30;77.30
4356;DHT22;64374;51.482;7.408;2023-06-14T09:40:40;23.40;78.20
4356;DHT22;64374;51.482;7.408;2023-06-14T09:43:08;23.60;78.00
4356;DHT22;64374;51.482;7.408;2023-06-14T09:45:38;23.60;79.00
4356;DHT22;64374;51.482;7.408;2023-06-14T09:48:08;23.70;78.00
4356;DHT22;64374;51.482;7.408;2023-06-14T09:50:37;23.70;79.80
4356;DHT22;64374;51.482;7.408;2023-06-14T09:53:07;23.80;79.80
4356;DHT22;64374;51.482;7.408;2023-06-14T09:55:38;23.90;80.60
4356;DHT22;64374;51.482;7.408;2023-06-14T09:58:10;24.00;80.00
4356;DHT22;64374;51.482;7.408;2023-06-14T10:00:40;24.20;80.50
4356;DHT22;64374;51.482;7.408;2023-06-14T10:03:24;24.30;81.10
4356;DHT22;64374;51.482;7.408;2023-06-14T10:05:56;24.20;80.20
4356;DHT22;64374;51.482;7.408;2023-06-14T10:08:30;24.30;80.70
4356;DHT22;64374;51.482;7.408;2023-06-14T10:11:03;24.30;81.60
4356;DHT22;64374;51.482;7.408;2023-06-14T10:13:33;24.40;80.70
4356;DHT22;64374;51.482;7.408;2023-06-14T10:16:07;24.30;80.70
4356;DHT22;64374;51.482;7.408;2023-06-14T10:18:45;24.30;79.80
4356;DHT22;64374;51.482;7.408;2023-06-14T10:21:22;24.40;81.10
4356;DHT22;64374;51.482;7.408;2023-06-14T10:23:56;24.40;80.20
4356;DHT22;64374;51.482;7.408;2023-06-14T10:26:30;24.40;79.60
4356;DHT22;64374;51.482;7.408;2023-06-14T10:29:01;24.30;80.00
4356;DHT22;64374;51.482;7.408;2023-06-14T10:31:42;24.40;80.50
4356;DHT22;64374;51.482;7.408;2023-06-14T10:34:11;24.50;80.50
4356;DHT22;64374;51.482;7.408;2023-06-14T10:36:42;24.50;80.20
4356;DHT22;64374;51.482;7.408;2023-06-14T10:39:15;24.50;79.60
4356;DHT22;64374;51.482;7.408;2023-06-14T10:41:53;24.50;79.30
4356;DHT22;64374;51.482;7.408;2023-06-14T10:44:41;24.50;79.90
4356;DHT22;64374;51.482;7.408;2023-06-14T10:47:27;24.60;80.10
4356;DHT22;64374;51.482;7.408;2023-06-14T10:49:58;24.70;80.50
4356;DHT22;64374;51.482;7.408;2023-06-14T10:52:34;24.80;78.70
4356;DHT22;64374;51.482;7.408;2023-06-14T10:55:10;24.70;78.70
4356;DHT22;64374;51.482;7.408;2023-06-14T10:57:53;24.80;79.30
4356;DHT22;64374;51.482;7.408;2023-06-14T11:00:25;24.80;79.60
4356;DHT22;64374;51.482;7.408;2023-06-14T11:03:39;24.80;79.70
4356;DHT22;64374;51.482;7.408;2023-06-14T11:06:15;25.00;79.50
4356;DHT22;64374;51.482;7.408;2023-06-14T11:11:42;24.80;79.40
4356;DHT22;64374;51.482;7.408;2023-06-14T11:14:12;24.90;80.90
4356;DHT22;64374;51.482;7.408;2023-06-14T11:16:41;25.00;80.70
4356;DHT22;64374;51.482;7.408;2023-06-14T11:19:10;25.10;80.70
4356;DHT22;64374;51.482;7.408;2023-06-14T11:21:40;25.10;80.50
4356;DHT22;64374;51.482;7.408;2023-06-14T11:24:10;25.10;80.10
4356;DHT22;64374;51.482;7.408;2023-06-14T11:26:41;25.10;78.60
4356;DHT22;64374;51.482;7.408;2023-06-14T11:29:09;25.10;79.40
4356;DHT22;64374;51.482;7.408;2023-06-14T11:31:43;25.20;78.20
4356;DHT22;64374;51.482;7.408;2023-06-14T11:34:12;25.40;79.10
4356;DHT22;64374;51.482;7.408;2023-06-14T11:36:41;25.50;80.00
4356;DHT22;64374;51.482;7.408;2023-06-14T11:39:10;25.60;79.50
4356;DHT22;64374;51.482;7.408;2023-06-14T11:41:40;25.70;77.60
4356;DHT22;64374;51.482;7.408;2023-06-14T11:44:09;25.70;77.60
4356;DHT22;64374;51.482;7.408;2023-06-14T11:46:45;25.80;77.00
4356;DHT22;64374;51.482;7.408;2023-06-14T11:49:13;25.90;78.60
4356;DHT22;64374;51.482;7.408;2023-06-14T11:51:42;26.00;78.80
4356;DHT22;64374;51.482;7.408;2023-06-14T11:54:12;26.00;79.80
4356;DHT22;64374;51.482;7.408;2023-06-14T11:56:41;25.90;77.90
4356;DHT22;64374;51.482;7.408;2023-06-14T11:59:13;25.90;79.50
4356;DHT22;64374;51.482;7.408;2023-06-14T12:01:43;26.10;79.30
4356;DHT22;64374;51.482;7.408;2023-06-14T12:04:12;26.00;76.90
4356;DHT22;64374;51.482;7.408;2023-06-14T12:06:41;26.10;78.70
4356;DHT22;64374;51.482;7.408;2023-06-14T12:09:10;26.10;79.40
4356;DHT22;64374;51.482;7.408;2023-06-14T12:11:42;26.00;77.30
4356;DHT22;64374;51.482;7.408;2023-06-14T12:14:10;26.10;77.30
4356;DHT22;64374;51.482;7.408;2023-06-14T12:16:39;26.20;77.10
4356;DHT22;64374;51.482;7.408;2023-06-14T12:19:13;26.20;77.40
4356;DHT22;64374;51.482;7.408;2023-06-14T12:21:42;26.30;77.80
4356;DHT22;64374;51.482;7.408;2023-06-14T12:24:12;26.60;77.90
4356;DHT22;64374;51.482;7.408;2023-06-14T12:26:41;26.30;76.70
4356;DHT22;64374;51.482;7.408;2023-06-14T12:29:14;26.50;75.50
4356;DHT22;64374;51.482;7.408;2023-06-14T12:31:42;26.50;76.90
4356;DHT22;64374;51.482;7.408;2023-06-14T12:34:13;26.50;75.80
4356;DHT22;64374;51.482;7.408;2023-06-14T12:36:42;26.40;75.00
4356;DHT22;64374;51.482;7.408;2023-06-14T12:39:13;26.50;76.20
4356;DHT22;64374;51.482;7.408;2023-06-14T12:41:42;26.50;76.70
4356;DHT22;64374;51.482;7.408;2023-06-14T12:44:10;26.50;75.90
4356;DHT22;64374;51.482;7.408;2023-06-14T12:46:39;26.50;76.60
4356;DHT22;64374;51.482;7.408;2023-06-14T12:49:09;26.50;76.00
4356;DHT22;64374;51.482;7.408;2023-06-14T12:51:40;26.60;76.70
4356;DHT22;64374;51.482;7.408;2023-06-14T12:54:08;26.60;74.30
4356;DHT22;64374;51.482;7.408;2023-06-14T12:56:36;26.70;74.20
4356;DHT22;64374;51.482;7.408;2023-06-14T12:59:05;26.70;75.00
4356;DHT22;64374;51.482;7.408;2023-06-14T13:01:34;26.70;74.20
4356;DHT22;64374;51.482;7.408;2023-06-14T13:04:03;26.80;75.10
4356;DHT22;64374;51.482;7.408;2023-06-14T13:06:31;26.90;74.50
4356;DHT22;64374;51.482;7.408;2023-06-14T13:09:02;26.90;73.90
4356;DHT22;64374;51.482;7.408;2023-06-14T13:11:31;26.90;74.70
4356;DHT22;64374;51.482;7.408;2023-06-14T13:13:59;26.90;74.70
4356;DHT22;64374;51.482;7.408;2023-06-14T13:16:43;27.00;74.30
4356;DHT22;64374;51.482;7.408;2023-06-14T13:19:12;26.90;73.00
4356;DHT22;64374;51.482;7.408;2023-06-14T13:21:40;26.90;73.30
4356;DHT22;64374;51.482;7.408;2023-06-14T13:24:10;26.90;74.90
4356;DHT22;64374;51.482;7.408;2023-06-14T13:26:38;27.00;75.60
4356;DHT22;64374;51.482;7.408;2023-06-14T13:29:08;27.00;74.30
4356;DHT22;64374;51.482;7.408;2023-06-14T13:31:37;27.00;74.90
4356;DHT22;64374;51.482;7.408;2023-06-14T13:34:06;27.10;73.80
4356;DHT22;64374;51.482;7.408;2023-06-14T13:36:35;27.10;74.40
4356;DHT22;64374;51.482;7.408;2023-06-14T13:39:04;27.20;72.40
4356;DHT22;64374;51.482;7.408;2023-06-14T13:41:33;27.00;73.30
4356;DHT22;64374;51.482;7.408;2023-06-14T13:44:02;26.80;74.30
4356;DHT22;64374;51.482;7.408;2023-06-14T13:46:32;26.80;74.30
4356;DHT22;64374;51.482;7.408;2023-06-14T13:49:00;26.90;73.60
4356;DHT22;64374;51.482;7.408;2023-06-14T13:51:29;26.90;72.80
4356;DHT22;64374;51.482;7.408;2023-06-14T13:53:58;27.00;73.60
4356;DHT22;64374;51.482;7.408;2023-06-14T13:56:27;27.00;73.50
4356;DHT22;64374;51.482;7.408;2023-06-14T13:58:57;27.20;72.00
4356;DHT22;64374;51.482;7.408;2023-06-14T14:01:25;27.20;72.70
4356;DHT22;64374;51.482;7.408;2023-06-14T14:03:56;27.20;71.70
4356;DHT22;64374;51.482;7.408;2023-06-14T14:06:25;27.30;72.50
4356;DHT22;64374;51.482;7.408;2023-06-14T14:08:54;27.30;73.10
4356;DHT22;64374;51.482;7.408;2023-06-14T14:11:24;27.20;72.80
4356;DHT22;64374;51.482;7.408;2023-06-14T14:13:53;27.40;71.70
4356;DHT22;64374;51.482;7.408;2023-06-14T14:16:22;27.30;72.30
4356;DHT22;64374;51.482;7.408;2023-06-14T14:18:51;27.20;72.30
4356;DHT22;64374;51.482;7.408;2023-06-14T14:21:20;27.10;72.60
4356;DHT22;64374;51.482;7.408;2023-06-14T14:23:48;27.00;72.20
4356;DHT22;64374;51.482;7.408;2023-06-14T14:26:16;26.90;71.80
4356;DHT22;64374;51.482;7.408;2023-06-14T14:28:45;26.90;72.80
4356;DHT22;64374;51.482;7.408;2023-06-14T14:31:14;27.10;72.50
4356;DHT22;64374;51.482;7.408;2023-06-14T14:33:45;27.20;72.30
4356;DHT22;64374;51.482;7.408;2023-06-14T14:36:13;27.30;71.30
4356;DHT22;64374;51.482;7.408;2023-06-14T14:38:41;27.30;70.20
4356;DHT22;64374;51.482;7.408;2023-06-14T14:41:09;27.40;71.30
4356;DHT22;64374;51.482;7.408;2023-06-14T14:43:38;27.60;70.90
4356;DHT22;64374;51.482;7.408;2023-06-14T14:46:07;27.50;71.20
4356;DHT22;64374;51.482;7.408;2023-06-14T14:48:38;27.50;72.00
4356;DHT22;64374;51.482;7.408;2023-06-14T14:51:07;27.50;71.80
4356;DHT22;64374;51.482;7.408;2023-06-14T14:53:36;27.60;69.90
4356;DHT22;64374;51.482;7.408;2023-06-14T14:56:04;27.70;70.40
4356;DHT22;64374;51.482;7.408;2023-06-14T14:58:33;27.70;69.50
4356;DHT22;64374;51.482;7.408;2023-06-14T15:01:02;27.70;70.20
4356;DHT22;64374;51.482;7.408;2023-06-14T15:03:33;27.60;68.90
4356;DHT22;64374;51.482;7.408;2023-06-14T15:06:22;27.50;69.90
4356;DHT22;64374;51.482;7.408;2023-06-14T15:08:51;27.50;70.30
4356;DHT22;64374;51.482;7.408;2023-06-14T15:11:19;27.50;70.80
4356;DHT22;64374;51.482;7.408;2023-06-14T15:13:47;27.50;70.40
4356;DHT22;64374;51.482;7.408;2023-06-14T15:16:19;27.60;69.70
4356;DHT22;64374;51.482;7.408;2023-06-14T15:18:51;27.60;68.90
4356;DHT22;64374;51.482;7.408;2023-06-14T15:21:22;27.50;70.50
4356;DHT22;64374;51.482;7.408;2023-06-14T15:23:50;27.50;68.80
4356;DHT22;64374;51.482;7.408;2023-06-14T15:26:21;27.40;67.80
4356;DHT22;64374;51.482;7.408;2023-06-14T15:28:51;27.40;70.80
4356;DHT22;64374;51.482;7.408;2023-06-14T15:31:20;27.40;70.60
4356;DHT22;64374;51.482;7.408;2023-06-14T15:33:51;27.30;70.20
4356;DHT22;64374;51.482;7.408;2023-06-14T15:36:19;27.30;70.60
4356;DHT22;64374;51.482;7.408;2023-06-14T15:38:49;27.30;69.40
4356;DHT22;64374;51.482;7.408;2023-06-14T15:41:18;27.20;67.70
4356;DHT22;64374;51.482;7.408;2023-06-14T15:43:47;27.40;68.30
4356;DHT22;64374;51.482;7.408;2023-06-14T15:46:21;27.60;67.20
4356;DHT22;64374;51.482;7.408;2023-06-14T15:48:49;27.70;68.30
4356;DHT22;64374;51.482;7.408;2023-06-14T15:51:18;27.70;69.00
4356;DHT22;64374;51.482;7.408;2023-06-14T15:53:46;27.70;68.30
4356;DHT22;64374;51.482;7.408;2023-06-14T15:56:16;27.70;68.10
4356;DHT22;64374;51.482;7.408;2023-06-14T15:58:44;27.70;70.00
4356;DHT22;64374;51.482;7.408;2023-06-14T16:01:13;27.70;67.80
4356;DHT22;64374;51.482;7.408;2023-06-14T16:03:41;27.70;69.30
4356;DHT22;64374;51.482;7.408;2023-06-14T16:06:09;27.70;67.60
4356;DHT22;64374;51.482;7.408;2023-06-14T16:08:37;27.70;67.50